createdAt,value
2018-07-11T00:01:04.045Z,29.53
2018-07-11T00:03:40.506Z,31.10
2018-07-11T00:06:09.542Z,30.13
2018-07-11T00:08:38.824Z,33.80
2018-07-11T00:11:07.139Z,30.13
2018-07-11T00:13:35.385Z,30.53
2018-07-11T00:16:04.476Z,29.20
2018-07-11T00:18:32.722Z,35.40
2018-07-11T00:21:02.351Z,30.13
2018-07-11T00:23:30.823Z,33.70
2018-07-11T00:25:59.030Z,30.77
2018-07-11T00:28:28.566Z,29.13
2018-07-11T00:30:58.818Z,37.53
2018-07-11T00:33:27.078Z,31.70
2018-07-11T00:35:55.382Z,32.50
2018-07-11T00:38:23.762Z,36.03
2018-07-11T00:40:52.946Z,29.77
2018-07-11T00:43:21.939Z,29.10
2018-07-11T00:45:52.478Z,37.00
2018-07-11T00:48:21.485Z,31.23
2018-07-11T00:50:50.160Z,27.57
2018-07-11T00:53:19.709Z,27.63
2018-07-11T00:55:48.011Z,30.97
2018-07-11T00:58:37.970Z,27.77
2018-07-11T01:01:09.731Z,24.83
2018-07-11T01:03:40.987Z,26.77
2018-07-11T01:06:10.355Z,26.23
2018-07-11T01:08:40.525Z,25.40
2018-07-11T01:11:13.297Z,25.20
2018-07-11T01:13:44.742Z,26.43
2018-07-11T01:16:14.898Z,30.30
2018-07-11T01:18:49.058Z,25.93
2018-07-11T01:21:18.795Z,27.80
2018-07-11T01:23:47.518Z,33.13
2018-07-11T01:26:16.388Z,29.70
2018-07-11T01:28:44.682Z,28.47
2018-07-11T01:31:12.870Z,29.03
2018-07-11T01:33:41.098Z,27.13
2018-07-11T01:36:09.338Z,24.33
2018-07-11T01:38:38.041Z,28.90
2018-07-11T01:41:06.950Z,25.80
2018-07-11T01:43:35.389Z,25.27
2018-07-11T01:46:05.819Z,28.77
2018-07-11T01:48:34.115Z,27.70
2018-07-11T01:51:03.238Z,28.17
2018-07-11T01:53:31.874Z,25.00
2018-07-11T01:56:00.185Z,32.87
2018-07-11T01:58:28.429Z,25.90
2018-07-11T02:00:57.395Z,26.40
2018-07-11T02:03:26.529Z,27.80
2018-07-11T02:05:55.082Z,27.90
2018-07-11T02:08:24.010Z,33.40
2018-07-11T02:10:52.609Z,28.57
2018-07-11T02:13:20.998Z,33.80
2018-07-11T02:15:50.294Z,30.23
2018-07-11T02:18:23.670Z,32.60
2018-07-11T02:20:52.911Z,29.57
2018-07-11T02:23:21.362Z,27.43
2018-07-11T02:25:50.870Z,25.43
2018-07-11T02:28:19.687Z,26.37
2018-07-11T02:30:47.951Z,30.73
2018-07-11T02:33:16.250Z,31.50
2018-07-11T02:35:45.587Z,25.97
2018-07-11T02:38:14.314Z,27.30
2018-07-11T02:40:42.525Z,28.17
2018-07-11T02:43:11.439Z,29.23
2018-07-11T02:45:39.644Z,27.37
2018-07-11T02:48:07.891Z,25.10
2018-07-11T02:50:36.273Z,24.20
2018-07-11T02:53:04.508Z,26.77
2018-07-11T02:55:32.686Z,28.20
2018-07-11T02:58:00.958Z,23.40
2018-07-11T03:00:29.186Z,24.10
2018-07-11T03:02:57.678Z,32.27
2018-07-11T03:05:26.250Z,22.60
2018-07-11T03:07:54.506Z,23.17
2018-07-11T03:10:22.785Z,21.13
2018-07-11T03:12:51.598Z,23.73
2018-07-11T03:15:21.399Z,26.50
2018-07-11T03:17:49.610Z,24.27
2018-07-11T03:20:17.855Z,23.07
2018-07-11T03:22:46.114Z,22.40
2018-07-11T03:25:14.351Z,25.50
2018-07-11T03:27:43.547Z,20.60
2018-07-11T03:30:12.458Z,21.13
2018-07-11T03:32:40.729Z,19.80
2018-07-11T03:35:08.994Z,21.03
2018-07-11T03:37:37.343Z,21.70
2018-07-11T03:40:05.571Z,22.97
2018-07-11T03:42:33.872Z,21.90
2018-07-11T03:45:02.701Z,21.33
2018-07-11T03:47:30.936Z,19.43
2018-07-11T03:49:59.862Z,25.20
2018-07-11T03:52:28.383Z,22.53
2018-07-11T03:54:56.581Z,22.70
2018-07-11T03:57:24.796Z,21.27
2018-07-11T03:59:53.054Z,23.17
2018-07-11T04:02:21.877Z,21.63
2018-07-11T04:04:51.347Z,20.30
2018-07-11T04:07:19.699Z,21.63
2018-07-11T04:09:49.369Z,18.93
2018-07-11T04:12:17.632Z,19.27
2018-07-11T04:14:45.933Z,20.70
2018-07-11T04:17:14.206Z,23.13
2018-07-11T04:19:42.445Z,23.40
2018-07-11T04:22:11.648Z,20.37
2018-07-11T04:24:39.862Z,19.33
2018-07-11T04:27:09.198Z,17.63
2018-07-11T04:29:37.217Z,17.23
2018-07-11T04:32:07.282Z,19.20
2018-07-11T04:34:35.755Z,18.13
2018-07-11T04:37:05.550Z,17.40
2018-07-11T04:39:33.863Z,18.23
2018-07-11T04:42:02.370Z,17.83
2018-07-11T04:44:31.540Z,16.50
2018-07-11T04:47:00.662Z,21.33
2018-07-11T04:49:28.902Z,16.40
2018-07-11T04:51:57.258Z,19.20
2018-07-11T04:54:25.565Z,17.50
2018-07-11T04:56:55.510Z,17.70
2018-07-11T04:59:23.763Z,18.00
2018-07-11T05:01:52.287Z,17.10
2018-07-11T05:04:21.783Z,15.97
2018-07-11T05:06:49.997Z,15.37
2018-07-11T05:09:18.426Z,20.27
2018-07-11T05:11:46.687Z,15.53
2018-07-11T05:14:15.768Z,16.17
2018-07-11T05:16:44.057Z,12.93
2018-07-11T05:19:12.333Z,14.93
2018-07-11T05:21:41.523Z,12.77
2018-07-11T05:24:09.902Z,16.50
2018-07-11T05:26:37.901Z,13.23
2018-07-11T05:29:06.086Z,13.43
2018-07-11T05:31:34.322Z,15.20
2018-07-11T05:34:03.268Z,13.80
2018-07-11T05:36:33.327Z,11.50
2018-07-11T05:39:01.892Z,11.83
2018-07-11T05:41:31.806Z,12.37
2018-07-11T05:44:00.091Z,12.50
2018-07-11T05:46:29.363Z,14.33
2018-07-11T05:48:57.567Z,12.20
2018-07-11T05:51:25.810Z,11.60
2018-07-11T05:53:54.522Z,11.07
2018-07-11T05:56:22.781Z,13.07
2018-07-11T05:58:51.182Z,12.00
2018-07-11T06:01:20.499Z,11.97
2018-07-11T06:03:49.058Z,11.80
2018-07-11T06:06:17.359Z,10.47
2018-07-11T06:08:45.584Z,9.20
2018-07-11T06:11:23.393Z,9.67
2018-07-11T06:13:52.750Z,11.50
2018-07-11T06:16:21.064Z,8.30
2018-07-11T06:18:49.713Z,10.90
2018-07-11T06:21:18.671Z,9.83
2018-07-11T06:23:47.559Z,7.10
2018-07-11T06:26:16.785Z,6.80
2018-07-11T06:28:45.787Z,10.70
2018-07-11T06:31:14.003Z,6.57
2018-07-11T06:33:42.269Z,6.50
2018-07-11T06:36:11.494Z,7.03
2018-07-11T06:38:41.108Z,6.60
2018-07-11T06:41:09.419Z,6.90
2018-07-11T06:43:38.823Z,5.80
2018-07-11T06:46:07.046Z,6.27
2018-07-11T06:48:35.310Z,5.30
2018-07-11T06:51:04.468Z,4.77
2018-07-11T06:53:32.782Z,4.87
2018-07-11T06:56:01.843Z,5.63
2018-07-11T06:58:30.666Z,4.30
2018-07-11T07:01:00.718Z,4.57
2018-07-11T07:03:30.218Z,4.53
2018-07-11T07:05:58.530Z,4.53
2018-07-11T07:08:28.189Z,4.43
2018-07-11T07:10:56.378Z,4.60
2018-07-11T07:13:24.580Z,4.27
2018-07-11T07:15:54.069Z,4.00
2018-07-11T07:18:22.296Z,4.23
2018-07-11T07:20:51.346Z,4.00
2018-07-11T07:23:20.075Z,4.90
2018-07-11T07:25:48.326Z,4.03
2018-07-11T07:28:17.551Z,4.17
2018-07-11T07:30:45.856Z,4.37
2018-07-11T07:33:14.369Z,4.43
2018-07-11T07:35:42.731Z,4.77
2018-07-11T07:38:11.119Z,6.80
2018-07-11T07:40:41.353Z,19.00
2018-07-11T07:43:09.967Z,4.93
2018-07-11T07:45:38.734Z,5.07
2018-07-11T07:48:06.987Z,5.20
2018-07-11T07:50:35.191Z,4.57
2018-07-11T07:53:03.426Z,5.10
2018-07-11T07:55:31.721Z,5.30
2018-07-11T07:57:59.923Z,5.23
2018-07-11T08:00:28.426Z,6.97
2018-07-11T08:02:57.052Z,5.43
2018-07-11T08:05:25.835Z,4.60
2018-07-11T08:07:54.179Z,4.83
2018-07-11T08:10:23.096Z,4.13
2018-07-11T08:12:51.962Z,5.10
2018-07-11T08:15:20.770Z,4.30
2018-07-11T08:17:49.035Z,3.27
2018-07-11T08:20:17.230Z,4.17
2018-07-11T08:23:23.398Z,3.87
2018-07-11T08:26:04.495Z,3.77
2018-07-11T08:30:20.617Z,4.63
2018-07-11T08:32:57.494Z,3.77
2018-07-11T08:38:13.618Z,3.90
2018-07-11T08:42:59.854Z,3.60
2018-07-11T08:45:41.328Z,4.77
2018-07-11T08:48:24.341Z,3.30
2018-07-11T08:51:03.742Z,3.57
2018-07-11T08:55:49.687Z,3.70
2018-07-11T08:58:29.464Z,2.87
2018-07-11T09:03:47.577Z,3.60
2018-07-11T09:07:27.510Z,2.97
2018-07-11T09:10:08.475Z,2.70
2018-07-11T09:12:45.870Z,3.63
2018-07-11T09:15:26.540Z,3.30
2018-07-11T09:18:10.205Z,2.80
2018-07-11T09:23:59.000Z,3.43
2018-07-11T09:26:27.156Z,2.40
2018-07-11T09:28:55.374Z,2.83
2018-07-11T09:31:23.602Z,2.83
2018-07-11T09:33:51.865Z,4.30
2018-07-11T09:36:20.169Z,2.50
2018-07-11T09:38:48.363Z,2.53
2018-07-11T09:41:17.377Z,3.00
2018-07-11T09:43:46.618Z,2.90
2018-07-11T09:46:15.176Z,2.70
2018-07-11T09:48:44.437Z,3.00
2018-07-11T09:51:12.696Z,2.60
2018-07-11T09:53:40.970Z,3.20
2018-07-11T09:56:10.332Z,3.90
2018-07-11T09:58:39.254Z,2.70
2018-07-11T10:01:13.283Z,3.07
2018-07-11T10:03:41.522Z,2.07
2018-07-11T10:06:09.789Z,2.50
2018-07-11T10:08:39.130Z,2.70
2018-07-11T10:11:07.454Z,2.60
2018-07-11T10:13:35.677Z,3.40
2018-07-11T10:16:03.952Z,2.20
2018-07-11T10:18:32.234Z,2.03
2018-07-11T10:21:00.485Z,3.97
2018-07-11T10:23:28.737Z,2.43
2018-07-11T10:25:56.965Z,2.00
2018-07-11T10:28:25.193Z,1.90
2018-07-11T10:30:53.405Z,3.00
2018-07-11T10:33:21.646Z,1.80
2018-07-11T10:35:49.927Z,1.90
2018-07-11T10:38:19.670Z,3.60
2018-07-11T10:40:48.254Z,3.87
2018-07-11T10:43:16.514Z,2.80
2018-07-11T10:45:46.327Z,2.70
2018-07-11T10:48:14.577Z,6.20
2018-07-11T10:50:42.865Z,2.60
2018-07-11T10:53:11.710Z,2.40
2018-07-11T10:55:39.954Z,3.90
2018-07-11T10:58:09.632Z,5.83
2018-07-11T11:00:37.851Z,2.67
2018-07-11T11:03:06.091Z,3.03
2018-07-11T11:05:34.941Z,4.43
2018-07-11T11:08:04.344Z,3.03
2018-07-11T11:10:32.527Z,4.30
2018-07-11T11:13:00.695Z,3.77
2018-07-11T11:15:28.926Z,4.07
2018-07-11T11:17:57.171Z,6.90
2018-07-11T11:20:25.410Z,3.77
2018-07-11T11:22:54.558Z,4.00
2018-07-11T11:25:22.773Z,3.53
2018-07-11T11:27:51.009Z,3.20
2018-07-11T11:30:19.740Z,3.90
2018-07-11T11:32:48.830Z,2.80
2018-07-11T11:35:17.060Z,3.40
2018-07-11T11:37:45.300Z,4.30
2018-07-11T11:40:14.641Z,3.83
2018-07-11T11:42:44.093Z,3.60
2018-07-11T11:45:12.626Z,4.00
2018-07-11T11:47:41.739Z,4.03
2018-07-11T11:50:09.942Z,3.33
2018-07-11T11:52:39.440Z,4.03
2018-07-11T11:55:07.720Z,3.93
2018-07-11T11:57:35.927Z,3.73
2018-07-11T12:00:04.551Z,3.47
2018-07-11T12:02:32.821Z,4.40
2018-07-11T12:05:01.046Z,6.60
2018-07-11T12:07:29.333Z,4.03
2018-07-11T12:09:57.568Z,3.83
2018-07-11T12:12:26.354Z,4.00
2018-07-11T12:14:54.646Z,4.50
2018-07-11T12:17:23.201Z,3.57
2018-07-11T12:19:51.470Z,4.37
2018-07-11T12:22:26.127Z,5.33
2018-07-11T12:24:54.766Z,3.40
2018-07-11T12:27:23.325Z,3.97
2018-07-11T12:29:52.321Z,4.63
2018-07-11T12:32:20.787Z,3.53
2018-07-11T12:34:49.079Z,3.20
2018-07-11T12:37:18.979Z,2.60
2018-07-11T12:39:48.488Z,3.43
2018-07-11T12:42:18.075Z,3.67
2018-07-11T12:44:46.881Z,3.10
2018-07-11T12:47:20.389Z,4.93
2018-07-11T12:49:48.681Z,2.97
2018-07-11T12:52:17.931Z,3.17
2018-07-11T12:54:46.869Z,2.70
2018-07-11T12:57:15.469Z,3.53
2018-07-11T12:59:43.667Z,2.97
2018-07-11T13:02:13.358Z,2.57
2018-07-11T13:04:42.337Z,2.60
2018-07-11T13:07:10.618Z,2.37
2018-07-11T13:09:39.844Z,4.03
2018-07-11T13:12:08.434Z,2.80
2018-07-11T13:14:36.662Z,2.37
2018-07-11T13:17:04.928Z,2.63
2018-07-11T13:19:33.177Z,3.33
2018-07-11T13:22:01.392Z,3.00
2018-07-11T13:24:30.255Z,4.10
2018-07-11T13:26:58.898Z,2.93
2018-07-11T13:29:28.010Z,2.73
2018-07-11T13:31:56.240Z,4.10
2018-07-11T13:34:28.374Z,3.43
2018-07-11T13:36:57.864Z,3.63
2018-07-11T13:39:26.093Z,3.47
2018-07-11T13:41:55.116Z,4.03
2018-07-11T13:44:23.820Z,3.17
2018-07-11T13:46:53.002Z,4.23
2018-07-11T13:49:21.945Z,4.70
2018-07-11T13:51:50.180Z,3.37
2018-07-11T13:54:18.511Z,4.37
2018-07-11T13:56:46.725Z,5.43
2018-07-11T13:59:15.576Z,3.93
2018-07-11T14:01:43.853Z,4.37
2018-07-11T14:04:12.091Z,5.00
2018-07-11T14:06:40.989Z,4.97
2018-07-11T14:09:10.414Z,4.37
2018-07-11T14:11:38.594Z,4.27
2018-07-11T14:14:06.841Z,3.90
2018-07-11T14:16:35.265Z,5.27
2018-07-11T14:19:05.419Z,3.33
2018-07-11T14:21:34.278Z,3.67
2018-07-11T14:24:04.153Z,4.53
2018-07-11T14:26:33.354Z,2.57
2018-07-11T14:29:02.588Z,4.00
2018-07-11T14:31:34.431Z,2.83
2018-07-11T14:34:05.214Z,2.90
2018-07-11T14:36:34.353Z,5.33
2018-07-11T14:39:02.862Z,3.07
2018-07-11T14:41:31.058Z,4.73
2018-07-11T14:43:59.966Z,5.40
2018-07-11T14:46:30.898Z,2.70
2018-07-11T14:48:59.822Z,2.83
2018-07-11T14:51:28.139Z,3.03
2018-07-11T14:53:58.029Z,5.03
2018-07-11T14:56:28.245Z,4.77
2018-07-11T14:58:57.755Z,4.17
2018-07-11T15:01:26.140Z,3.83
2018-07-11T15:03:54.705Z,4.80
2018-07-11T15:06:24.599Z,5.23
2018-07-11T15:08:54.760Z,5.10
2018-07-11T15:11:23.510Z,6.47
2018-07-11T15:13:52.244Z,7.60
2018-07-11T15:16:20.650Z,6.37
2018-07-11T15:18:49.609Z,6.87
2018-07-11T15:21:18.086Z,8.63
2018-07-11T15:23:46.313Z,9.53
2018-07-11T15:26:14.551Z,7.60
2018-07-11T15:28:43.446Z,8.80
2018-07-11T15:31:16.011Z,7.73
2018-07-11T15:33:45.633Z,9.00
2018-07-11T15:36:13.787Z,9.60
2018-07-11T15:38:42.153Z,9.13
2018-07-11T15:41:10.463Z,9.47
2018-07-11T15:43:39.358Z,9.77
2018-07-11T15:46:08.639Z,9.47
2018-07-11T15:48:36.954Z,9.00
2018-07-11T15:51:07.273Z,10.40
2018-07-11T15:53:36.921Z,10.03
2018-07-11T15:56:07.285Z,9.43
2018-07-11T15:58:37.693Z,9.70
2018-07-11T16:01:08.754Z,10.50
2018-07-11T16:03:42.914Z,10.43
2018-07-11T16:06:12.892Z,10.73
2018-07-11T16:08:50.014Z,10.73
2018-07-11T16:11:18.250Z,12.27
2018-07-11T16:13:46.547Z,14.40
2018-07-11T16:16:19.375Z,11.90
2018-07-11T16:18:47.581Z,12.90
2018-07-11T16:21:16.413Z,13.27
2018-07-11T16:23:44.681Z,15.03
2018-07-11T16:26:13.026Z,13.80
2018-07-11T16:28:42.158Z,13.77
2018-07-11T16:31:10.384Z,14.63
2018-07-11T16:33:38.598Z,16.20
2018-07-11T16:36:06.820Z,15.67
2018-07-11T16:38:35.035Z,17.03
2018-07-11T16:41:03.805Z,15.23
2018-07-11T16:43:32.681Z,14.73
2018-07-11T16:46:00.898Z,14.73
2018-07-11T16:48:29.155Z,15.30
2018-07-11T16:50:59.078Z,17.30
2018-07-11T16:53:27.371Z,18.60
2018-07-11T16:55:58.162Z,14.00
2018-07-11T16:58:30.203Z,14.20
2018-07-11T17:01:00.478Z,14.47
2018-07-11T17:03:31.721Z,13.80
2018-07-11T17:06:04.741Z,14.47
2018-07-11T17:08:35.501Z,13.90
2018-07-11T17:11:13.794Z,16.30
2018-07-11T17:13:46.686Z,17.83
2018-07-11T17:16:15.309Z,16.30
2018-07-11T17:18:45.651Z,21.50
2018-07-11T17:21:26.286Z,18.37
2018-07-11T17:24:00.576Z,17.13
2018-07-11T17:26:28.859Z,17.53
2018-07-11T17:28:59.828Z,18.10
2018-07-11T17:31:28.942Z,19.27
2018-07-11T17:33:58.739Z,17.83
2018-07-11T17:36:30.087Z,16.63
2018-07-11T17:38:59.714Z,18.73
2018-07-11T17:41:28.820Z,17.57
2018-07-11T17:43:57.985Z,18.10
2018-07-11T17:46:26.318Z,17.73
2018-07-11T17:49:07.341Z,17.40
2018-07-11T17:51:46.931Z,15.53
2018-07-11T17:54:15.425Z,18.93
2018-07-11T17:56:50.295Z,18.87
2018-07-11T17:59:22.852Z,17.00
2018-07-11T18:01:53.021Z,19.73
2018-07-11T18:04:28.118Z,19.73
2018-07-11T18:07:05.749Z,18.90
2018-07-11T18:10:10.588Z,17.73
2018-07-11T18:12:54.828Z,18.03
2018-07-11T18:15:30.511Z,18.73
2018-07-11T18:18:09.527Z,18.70
2018-07-11T18:20:47.949Z,22.50
2018-07-11T18:25:32.074Z,17.97
2018-07-11T18:28:10.336Z,21.87
2018-07-11T18:31:48.555Z,20.40
2018-07-11T18:34:28.645Z,22.10
2018-07-11T18:37:15.072Z,23.17
2018-07-11T18:39:57.398Z,22.37
2018-07-11T18:42:48.762Z,24.30
2018-07-11T18:47:28.253Z,25.03
2018-07-11T18:52:40.401Z,22.53
2018-07-11T18:55:26.793Z,22.00
2018-07-11T18:59:10.277Z,25.03
2018-07-11T19:01:52.971Z,26.20
2018-07-11T19:04:25.879Z,27.03
2018-07-11T19:07:11.319Z,34.80
2018-07-11T19:09:58.331Z,29.57
2018-07-11T19:12:28.778Z,26.20
2018-07-11T19:15:12.197Z,30.07
2018-07-11T19:18:55.191Z,30.27
2018-07-11T19:21:30.086Z,25.13
2018-07-11T19:24:04.532Z,29.47
2018-07-11T19:26:35.517Z,29.20
2018-07-11T19:29:16.289Z,27.37
2018-07-11T19:31:55.946Z,28.50
2018-07-11T19:34:36.322Z,33.40
2018-07-11T19:37:45.926Z,27.50
2018-07-11T19:40:28.833Z,28.10
2018-07-11T19:43:06.233Z,26.97
2018-07-11T19:47:48.054Z,30.33
2018-07-11T19:52:30.673Z,31.27
2018-07-11T19:55:10.426Z,23.47
2018-07-11T19:57:38.643Z,25.00
2018-07-11T20:00:08.517Z,27.77
2018-07-11T20:02:36.733Z,22.80
2018-07-11T20:05:05.019Z,27.00
2018-07-11T20:07:34.718Z,26.33
2018-07-11T20:10:03.425Z,25.73
2018-07-11T20:12:32.782Z,23.13
2018-07-11T20:15:01.797Z,21.47
2018-07-11T20:17:31.016Z,23.50
2018-07-11T20:19:59.316Z,26.77
2018-07-11T20:22:27.542Z,27.60
2018-07-11T20:24:56.403Z,26.70
2018-07-11T20:27:24.647Z,27.60
2018-07-11T20:29:53.193Z,26.67
2018-07-11T20:32:21.459Z,23.27
2018-07-11T20:34:51.207Z,28.20
2018-07-11T20:37:19.493Z,26.20
2018-07-11T20:39:47.697Z,24.30
2018-07-11T20:42:16.266Z,30.77
2018-07-11T20:44:45.529Z,30.10
2018-07-11T20:47:13.795Z,26.70
2018-07-11T20:49:42.084Z,29.87
2018-07-11T20:52:10.345Z,23.83
2018-07-11T20:54:38.514Z,25.97
2018-07-11T20:57:07.334Z,27.37
2018-07-11T20:59:47.199Z,28.70
2018-07-11T21:02:27.046Z,26.37
2018-07-11T21:05:06.143Z,28.07
2018-07-11T21:07:43.783Z,28.73
2018-07-11T21:10:39.120Z,34.03
2018-07-11T21:13:26.319Z,29.87
2018-07-11T21:16:05.919Z,32.00
2018-07-11T21:18:59.742Z,27.80
2018-07-11T21:21:28.507Z,27.03
2018-07-11T21:23:56.782Z,28.73
2018-07-11T21:26:25.094Z,32.47
2018-07-11T21:28:53.398Z,28.30
2018-07-11T21:31:21.651Z,32.03
2018-07-11T21:33:50.397Z,30.67
2018-07-11T21:36:18.698Z,28.10
2018-07-11T21:38:46.936Z,27.00
2018-07-11T21:41:15.178Z,25.67
2018-07-11T21:43:44.791Z,24.63
2018-07-11T21:46:13.143Z,24.30
2018-07-11T21:48:41.708Z,26.47
2018-07-11T21:51:09.965Z,24.20
2018-07-11T21:53:39.066Z,24.23
2018-07-11T21:56:08.425Z,25.47
2018-07-11T21:58:37.442Z,24.50
2018-07-11T22:01:06.955Z,29.50
2018-07-11T22:03:35.883Z,21.60
2018-07-11T22:06:04.148Z,21.33
2018-07-11T22:08:33.853Z,20.27
2018-07-11T22:11:02.229Z,21.57
2018-07-11T22:13:30.465Z,20.50
2018-07-11T22:15:59.090Z,21.73
2018-07-11T22:18:45.857Z,24.50
2018-07-11T22:21:14.615Z,22.40
2018-07-11T22:23:41.829Z,28.47
2018-07-11T22:26:09.083Z,23.77
2018-07-11T22:28:37.158Z,23.93
2018-07-11T22:31:04.391Z,25.97
2018-07-11T22:33:31.625Z,27.97
2018-07-11T22:35:59.130Z,26.57
2018-07-11T22:38:26.343Z,25.20
2018-07-11T22:40:53.551Z,32.50
2018-07-11T22:43:20.750Z,26.63
2018-07-11T22:45:47.998Z,28.10
2018-07-11T22:48:15.513Z,27.53
2018-07-11T22:50:42.742Z,28.43
2018-07-11T22:53:10.330Z,29.57
2018-07-11T22:55:37.590Z,31.87
2018-07-11T22:58:04.798Z,31.10
2018-07-11T23:00:32.015Z,30.23
2018-07-11T23:02:59.459Z,33.00
2018-07-11T23:05:26.670Z,28.70
2018-07-11T23:07:54.601Z,27.70
2018-07-11T23:10:21.801Z,32.03
2018-07-11T23:12:49.973Z,33.30
2018-07-11T23:15:17.192Z,32.93
2018-07-11T23:17:44.402Z,31.20
2018-07-11T23:20:11.639Z,32.97
2018-07-11T23:22:38.821Z,33.23
2018-07-11T23:25:06.919Z,32.53
2018-07-11T23:27:35.435Z,35.00
2018-07-11T23:30:03.678Z,35.00
2018-07-11T23:32:30.889Z,32.30
2018-07-11T23:34:58.115Z,39.13
2018-07-11T23:37:26.078Z,33.57
2018-07-11T23:39:54.230Z,34.27
2018-07-11T23:42:22.382Z,30.23
2018-07-11T23:44:50.972Z,30.13
2018-07-11T23:47:18.150Z,36.30
2018-07-11T23:49:45.356Z,32.97
2018-07-11T23:52:13.598Z,30.90
2018-07-11T23:54:41.039Z,31.63
2018-07-11T23:57:08.333Z,31.33
2018-07-11T23:59:35.556Z,29.20
